sensor_id;sensor_type;location;lat;lon;timestamp;P1;durP1;ratioP1;P2;durP2;ratioP2
15043;SDS011;7619;48.562;8.910;2024-02-21T00:00:19;8.37;;;5.00;;
15043;SDS011;7619;48.562;8.910;2024-02-21T00:02:47;13.17;;;5.07;;
15043;SDS011;7619;48.562;8.910;2024-02-21T00:05:16;12.97;;;5.97;;
15043;SDS011;7619;48.562;8.910;2024-02-21T00:07:44;8.40;;;4.50;;
15043;SDS011;7619;48.562;8.910;2024-02-21T00:10:12;9.80;;;4.90;;
15043;SDS011;7619;48.562;8.910;2024-02-21T00:12:40;9.30;;;5.20;;
15043;SDS011;7619;48.562;8.910;2024-02-21T00:15:09;10.63;;;4.37;;
15043;SDS011;7619;48.562;8.910;2024-02-21T00:17:37;9.00;;;4.33;;
15043;SDS011;7619;48.562;8.910;2024-02-21T00:20:07;9.73;;;4.80;;
15043;SDS011;7619;48.562;8.910;2024-02-21T00:22:35;6.50;;;4.57;;
15043;SDS011;7619;48.562;8.910;2024-02-21T00:25:03;13.10;;;5.37;;
15043;SDS011;7619;48.562;8.910;2024-02-21T00:27:31;10.13;;;4.70;;
15043;SDS011;7619;48.562;8.910;2024-02-21T00:30:00;13.30;;;4.70;;
15043;SDS011;7619;48.562;8.910;2024-02-21T00:32:28;5.97;;;4.07;;
15043;SDS011;7619;48.562;8.910;2024-02-21T00:34:56;5.97;;;3.77;;
15043;SDS011;7619;48.562;8.910;2024-02-21T00:37:24;7.53;;;4.33;;
15043;SDS011;7619;48.562;8.910;2024-02-21T00:39:52;4.23;;;3.50;;
15043;SDS011;7619;48.562;8.910;2024-02-21T00:42:21;8.97;;;4.27;;
15043;SDS011;7619;48.562;8.910;2024-02-21T00:44:49;10.53;;;4.57;;
15043;SDS011;7619;48.562;8.910;2024-02-21T00:47:17;9.27;;;3.70;;
15043;SDS011;7619;48.562;8.910;2024-02-21T00:49:45;8.43;;;4.07;;
15043;SDS011;7619;48.562;8.910;2024-02-21T00:52:13;9.70;;;3.90;;
15043;SDS011;7619;48.562;8.910;2024-02-21T00:54:41;9.73;;;4.10;;
15043;SDS011;7619;48.562;8.910;2024-02-21T00:57:09;11.60;;;3.80;;
15043;SDS011;7619;48.562;8.910;2024-02-21T00:59:37;11.37;;;4.37;;
15043;SDS011;7619;48.562;8.910;2024-02-21T01:02:05;8.10;;;4.70;;
15043;SDS011;7619;48.562;8.910;2024-02-21T01:04:33;7.83;;;4.63;;
15043;SDS011;7619;48.562;8.910;2024-02-21T01:07:02;7.07;;;3.80;;
15043;SDS011;7619;48.562;8.910;2024-02-21T01:09:30;9.17;;;4.10;;
15043;SDS011;7619;48.562;8.910;2024-02-21T01:11:58;8.53;;;4.43;;
15043;SDS011;7619;48.562;8.910;2024-02-21T01:14:26;6.33;;;4.10;;
15043;SDS011;7619;48.562;8.910;2024-02-21T01:16:54;6.70;;;4.00;;
15043;SDS011;7619;48.562;8.910;2024-02-21T01:19:22;8.70;;;3.87;;
15043;SDS011;7619;48.562;8.910;2024-02-21T01:21:50;9.73;;;4.50;;
15043;SDS011;7619;48.562;8.910;2024-02-21T01:24:18;4.43;;;3.70;;
15043;SDS011;7619;48.562;8.910;2024-02-21T01:26:46;10.90;;;5.13;;
15043;SDS011;7619;48.562;8.910;2024-02-21T01:29:15;13.73;;;4.53;;
15043;SDS011;7619;48.562;8.910;2024-02-21T01:31:43;7.63;;;4.43;;
15043;SDS011;7619;48.562;8.910;2024-02-21T01:34:11;7.80;;;4.83;;
15043;SDS011;7619;48.562;8.910;2024-02-21T01:36:39;9.63;;;3.93;;
15043;SDS011;7619;48.562;8.910;2024-02-21T01:39:08;6.63;;;4.13;;
15043;SDS011;7619;48.562;8.910;2024-02-21T01:41:36;7.03;;;3.63;;
15043;SDS011;7619;48.562;8.910;2024-02-21T01:44:04;9.00;;;4.27;;
15043;SDS011;7619;48.562;8.910;2024-02-21T01:46:32;8.20;;;3.97;;
15043;SDS011;7619;48.562;8.910;2024-02-21T01:49:00;8.53;;;3.73;;
15043;SDS011;7619;48.562;8.910;2024-02-21T01:51:28;6.57;;;3.93;;
15043;SDS011;7619;48.562;8.910;2024-02-21T01:53:57;11.20;;;4.57;;
15043;SDS011;7619;48.562;8.910;2024-02-21T01:56:25;7.23;;;3.90;;
15043;SDS011;7619;48.562;8.910;2024-02-21T01:58:54;6.77;;;3.70;;
15043;SDS011;7619;48.562;8.910;2024-02-21T02:01:23;6.20;;;3.70;;
15043;SDS011;7619;48.562;8.910;2024-02-21T02:03:51;5.13;;;3.87;;
15043;SDS011;7619;48.562;8.910;2024-02-21T02:06:21;7.60;;;3.33;;
15043;SDS011;7619;48.562;8.910;2024-02-21T02:08:49;4.87;;;3.60;;
15043;SDS011;7619;48.562;8.910;2024-02-21T02:11:17;13.53;;;3.87;;
15043;SDS011;7619;48.562;8.910;2024-02-21T02:13:46;7.33;;;4.03;;
15043;SDS011;7619;48.562;8.910;2024-02-21T02:16:14;7.23;;;3.57;;
15043;SDS011;7619;48.562;8.910;2024-02-21T02:18:42;6.67;;;3.30;;
15043;SDS011;7619;48.562;8.910;2024-02-21T02:21:10;8.57;;;3.80;;
15043;SDS011;7619;48.562;8.910;2024-02-21T02:23:39;9.23;;;3.63;;
15043;SDS011;7619;48.562;8.910;2024-02-21T02:26:08;6.17;;;3.30;;
15043;SDS011;7619;48.562;8.910;2024-02-21T02:28:36;7.80;;;3.00;;
15043;SDS011;7619;48.562;8.910;2024-02-21T02:31:04;5.27;;;3.47;;
15043;SDS011;7619;48.562;8.910;2024-02-21T02:33:33;6.63;;;3.43;;
15043;SDS011;7619;48.562;8.910;2024-02-21T02:36:01;5.77;;;3.50;;
15043;SDS011;7619;48.562;8.910;2024-02-21T02:38:29;4.97;;;3.80;;
15043;SDS011;7619;48.562;8.910;2024-02-21T02:40:57;9.23;;;3.90;;
15043;SDS011;7619;48.562;8.910;2024-02-21T02:43:25;6.73;;;3.60;;
15043;SDS011;7619;48.562;8.910;2024-02-21T02:45:53;9.87;;;4.57;;
15043;SDS011;7619;48.562;8.910;2024-02-21T02:48:22;10.80;;;4.13;;
15043;SDS011;7619;48.562;8.910;2024-02-21T02:50:50;8.93;;;3.97;;
15043;SDS011;7619;48.562;8.910;2024-02-21T02:53:18;6.40;;;3.40;;
15043;SDS011;7619;48.562;8.910;2024-02-21T02:55:46;7.73;;;3.73;;
15043;SDS011;7619;48.562;8.910;2024-02-21T02:58:14;7.60;;;3.50;;
15043;SDS011;7619;48.562;8.910;2024-02-21T03:00:43;8.53;;;3.30;;
15043;SDS011;7619;48.562;8.910;2024-02-21T03:03:11;5.97;;;3.33;;
15043;SDS011;7619;48.562;8.910;2024-02-21T03:05:39;11.27;;;3.77;;
15043;SDS011;7619;48.562;8.910;2024-02-21T03:08:07;6.63;;;3.23;;
15043;SDS011;7619;48.562;8.910;2024-02-21T03:10:35;9.93;;;4.27;;
15043;SDS011;7619;48.562;8.910;2024-02-21T03:13:03;9.10;;;3.90;;
15043;SDS011;7619;48.562;8.910;2024-02-21T03:15:31;4.60;;;3.50;;
15043;SDS011;7619;48.562;8.910;2024-02-21T03:17:59;7.87;;;3.47;;
15043;SDS011;7619;48.562;8.910;2024-02-21T03:20:27;7.53;;;3.60;;
15043;SDS011;7619;48.562;8.910;2024-02-21T03:22:55;7.00;;;4.07;;
15043;SDS011;7619;48.562;8.910;2024-02-21T03:25:23;11.70;;;3.50;;
15043;SDS011;7619;48.562;8.910;2024-02-21T03:27:51;9.93;;;4.03;;
15043;SDS011;7619;48.562;8.910;2024-02-21T03:30:20;4.67;;;3.17;;
15043;SDS011;7619;48.562;8.910;2024-02-21T03:32:48;10.40;;;3.60;;
15043;SDS011;7619;48.562;8.910;2024-02-21T03:35:17;6.90;;;3.73;;
15043;SDS011;7619;48.562;8.910;2024-02-21T03:37:45;5.93;;;3.40;;
15043;SDS011;7619;48.562;8.910;2024-02-21T03:40:13;7.17;;;3.87;;
15043;SDS011;7619;48.562;8.910;2024-02-21T03:42:41;4.33;;;3.77;;
15043;SDS011;7619;48.562;8.910;2024-02-21T03:45:09;7.43;;;3.20;;
15043;SDS011;7619;48.562;8.910;2024-02-21T03:47:37;5.63;;;2.93;;
15043;SDS011;7619;48.562;8.910;2024-02-21T03:50:06;9.33;;;3.30;;
15043;SDS011;7619;48.562;8.910;2024-02-21T03:52:35;8.50;;;3.40;;
15043;SDS011;7619;48.562;8.910;2024-02-21T03:55:03;7.03;;;3.17;;
15043;SDS011;7619;48.562;8.910;2024-02-21T03:57:31;4.53;;;2.57;;
15043;SDS011;7619;48.562;8.910;2024-02-21T03:59:59;4.17;;;2.80;;
15043;SDS011;7619;48.562;8.910;2024-02-21T04:02:27;7.30;;;3.10;;
15043;SDS011;7619;48.562;8.910;2024-02-21T04:04:55;6.20;;;3.13;;
15043;SDS011;7619;48.562;8.910;2024-02-21T04:07:23;8.00;;;3.53;;
15043;SDS011;7619;48.562;8.910;2024-02-21T04:09:51;7.93;;;3.00;;
15043;SDS011;7619;48.562;8.910;2024-02-21T04:12:19;4.90;;;3.20;;
15043;SDS011;7619;48.562;8.910;2024-02-21T04:14:47;5.57;;;2.60;;
15043;SDS011;7619;48.562;8.910;2024-02-21T04:17:15;6.13;;;3.07;;
15043;SDS011;7619;48.562;8.910;2024-02-21T04:19:43;4.63;;;2.73;;
15043;SDS011;7619;48.562;8.910;2024-02-21T04:22:11;4.93;;;2.57;;
15043;SDS011;7619;48.562;8.910;2024-02-21T04:24:39;5.27;;;2.77;;
15043;SDS011;7619;48.562;8.910;2024-02-21T04:27:07;4.67;;;3.23;;
15043;SDS011;7619;48.562;8.910;2024-02-21T04:29:35;4.43;;;2.60;;
15043;SDS011;7619;48.562;8.910;2024-02-21T04:32:06;8.93;;;3.20;;
15043;SDS011;7619;48.562;8.910;2024-02-21T04:34:35;4.43;;;2.37;;
15043;SDS011;7619;48.562;8.910;2024-02-21T04:37:03;4.67;;;2.70;;
15043;SDS011;7619;48.562;8.910;2024-02-21T04:39:31;4.20;;;3.00;;
15043;SDS011;7619;48.562;8.910;2024-02-21T04:41:59;5.40;;;2.63;;
15043;SDS011;7619;48.562;8.910;2024-02-21T04:44:27;3.60;;;2.37;;
15043;SDS011;7619;48.562;8.910;2024-02-21T04:46:55;4.77;;;2.40;;
15043;SDS011;7619;48.562;8.910;2024-02-21T04:49:23;6.67;;;3.30;;
15043;SDS011;7619;48.562;8.910;2024-02-21T04:51:51;4.20;;;2.63;;
15043;SDS011;7619;48.562;8.910;2024-02-21T04:54:19;4.80;;;2.83;;
15043;SDS011;7619;48.562;8.910;2024-02-21T04:56:47;5.07;;;2.80;;
15043;SDS011;7619;48.562;8.910;2024-02-21T04:59:16;9.27;;;3.33;;
15043;SDS011;7619;48.562;8.910;2024-02-21T05:01:44;6.20;;;3.00;;
15043;SDS011;7619;48.562;8.910;2024-02-21T05:04:12;3.93;;;2.70;;
15043;SDS011;7619;48.562;8.910;2024-02-21T05:06:40;4.00;;;3.17;;
15043;SDS011;7619;48.562;8.910;2024-02-21T05:09:08;9.60;;;4.00;;
15043;SDS011;7619;48.562;8.910;2024-02-21T05:11:37;5.73;;;3.47;;
15043;SDS011;7619;48.562;8.910;2024-02-21T05:14:05;6.60;;;3.97;;
15043;SDS011;7619;48.562;8.910;2024-02-21T05:16:34;6.90;;;3.37;;
15043;SDS011;7619;48.562;8.910;2024-02-21T05:19:02;8.87;;;3.40;;
15043;SDS011;7619;48.562;8.910;2024-02-21T05:21:31;7.20;;;3.17;;
15043;SDS011;7619;48.562;8.910;2024-02-21T05:23:59;10.97;;;2.37;;
15043;SDS011;7619;48.562;8.910;2024-02-21T05:26:27;5.57;;;3.03;;
15043;SDS011;7619;48.562;8.910;2024-02-21T05:28:55;7.40;;;3.63;;
15043;SDS011;7619;48.562;8.910;2024-02-21T05:31:23;3.87;;;2.40;;
15043;SDS011;7619;48.562;8.910;2024-02-21T05:33:51;5.57;;;2.87;;
15043;SDS011;7619;48.562;8.910;2024-02-21T05:36:19;7.27;;;2.70;;
15043;SDS011;7619;48.562;8.910;2024-02-21T05:38:47;6.07;;;2.90;;
15043;SDS011;7619;48.562;8.910;2024-02-21T05:41:15;6.93;;;2.93;;
15043;SDS011;7619;48.562;8.910;2024-02-21T05:43:43;8.07;;;2.90;;
15043;SDS011;7619;48.562;8.910;2024-02-21T05:46:11;5.47;;;2.70;;
15043;SDS011;7619;48.562;8.910;2024-02-21T05:48:39;7.07;;;3.20;;
15043;SDS011;7619;48.562;8.910;2024-02-21T05:51:07;5.33;;;2.90;;
15043;SDS011;7619;48.562;8.910;2024-02-21T05:53:35;8.77;;;3.10;;
15043;SDS011;7619;48.562;8.910;2024-02-21T05:56:05;6.30;;;2.73;;
15043;SDS011;7619;48.562;8.910;2024-02-21T05:58:35;4.73;;;3.23;;
15043;SDS011;7619;48.562;8.910;2024-02-21T06:01:03;10.90;;;3.43;;
15043;SDS011;7619;48.562;8.910;2024-02-21T06:03:33;9.97;;;3.27;;
15043;SDS011;7619;48.562;8.910;2024-02-21T06:06:01;6.63;;;2.90;;
15043;SDS011;7619;48.562;8.910;2024-02-21T06:08:31;5.73;;;2.70;;
15043;SDS011;7619;48.562;8.910;2024-02-21T06:10:59;4.97;;;2.90;;
15043;SDS011;7619;48.562;8.910;2024-02-21T06:13:27;7.70;;;2.97;;
15043;SDS011;7619;48.562;8.910;2024-02-21T06:15:55;5.83;;;2.70;;
15043;SDS011;7619;48.562;8.910;2024-02-21T06:18:23;8.07;;;2.97;;
15043;SDS011;7619;48.562;8.910;2024-02-21T06:20:51;4.13;;;2.97;;
15043;SDS011;7619;48.562;8.910;2024-02-21T06:23:20;4.67;;;2.70;;
15043;SDS011;7619;48.562;8.910;2024-02-21T06:25:48;4.27;;;3.20;;
15043;SDS011;7619;48.562;8.910;2024-02-21T06:28:16;3.60;;;2.73;;
15043;SDS011;7619;48.562;8.910;2024-02-21T06:30:44;6.20;;;3.20;;
15043;SDS011;7619;48.562;8.910;2024-02-21T06:33:12;5.67;;;3.07;;
15043;SDS011;7619;48.562;8.910;2024-02-21T06:35:40;5.53;;;3.00;;
15043;SDS011;7619;48.562;8.910;2024-02-21T06:38:09;12.47;;;3.07;;
15043;SDS011;7619;48.562;8.910;2024-02-21T06:40:37;3.60;;;2.27;;
15043;SDS011;7619;48.562;8.910;2024-02-21T06:43:06;5.17;;;3.37;;
15043;SDS011;7619;48.562;8.910;2024-02-21T06:45:34;5.67;;;2.80;;
15043;SDS011;7619;48.562;8.910;2024-02-21T06:48:03;5.60;;;3.03;;
15043;SDS011;7619;48.562;8.910;2024-02-21T06:50:31;4.50;;;2.80;;
15043;SDS011;7619;48.562;8.910;2024-02-21T06:52:59;6.07;;;3.37;;
15043;SDS011;7619;48.562;8.910;2024-02-21T06:55:27;10.10;;;3.63;;
15043;SDS011;7619;48.562;8.910;2024-02-21T06:57:55;10.30;;;3.63;;
15043;SDS011;7619;48.562;8.910;2024-02-21T07:00:23;7.70;;;4.63;;
15043;SDS011;7619;48.562;8.910;2024-02-21T07:02:52;10.50;;;3.37;;
15043;SDS011;7619;48.562;8.910;2024-02-21T07:05:20;8.83;;;2.83;;
15043;SDS011;7619;48.562;8.910;2024-02-21T07:07:49;5.30;;;3.17;;
15043;SDS011;7619;48.562;8.910;2024-02-21T07:10:17;5.90;;;2.73;;
15043;SDS011;7619;48.562;8.910;2024-02-21T07:12:45;10.33;;;3.20;;
15043;SDS011;7619;48.562;8.910;2024-02-21T07:15:13;10.33;;;3.03;;
15043;SDS011;7619;48.562;8.910;2024-02-21T07:17:41;8.93;;;3.57;;
15043;SDS011;7619;48.562;8.910;2024-02-21T07:20:09;5.30;;;3.00;;
15043;SDS011;7619;48.562;8.910;2024-02-21T07:22:37;8.63;;;2.90;;
15043;SDS011;7619;48.562;8.910;2024-02-21T07:25:06;7.60;;;3.30;;
15043;SDS011;7619;48.562;8.910;2024-02-21T07:27:35;4.43;;;2.87;;
15043;SDS011;7619;48.562;8.910;2024-02-21T07:30:05;8.73;;;2.87;;
15043;SDS011;7619;48.562;8.910;2024-02-21T07:32:33;10.00;;;2.77;;
15043;SDS011;7619;48.562;8.910;2024-02-21T07:35:02;7.63;;;2.90;;
15043;SDS011;7619;48.562;8.910;2024-02-21T07:37:30;9.07;;;3.73;;
15043;SDS011;7619;48.562;8.910;2024-02-21T07:39:58;4.33;;;2.73;;
15043;SDS011;7619;48.562;8.910;2024-02-21T07:42:26;8.03;;;3.23;;
15043;SDS011;7619;48.562;8.910;2024-02-21T07:44:54;4.43;;;2.63;;
15043;SDS011;7619;48.562;8.910;2024-02-21T07:47:23;5.83;;;2.80;;
15043;SDS011;7619;48.562;8.910;2024-02-21T07:49:51;4.63;;;2.30;;
15043;SDS011;7619;48.562;8.910;2024-02-21T07:52:19;4.80;;;3.10;;
15043;SDS011;7619;48.562;8.910;2024-02-21T07:54:47;9.33;;;2.80;;
15043;SDS011;7619;48.562;8.910;2024-02-21T07:57:15;6.97;;;2.73;;
15043;SDS011;7619;48.562;8.910;2024-02-21T07:59:43;6.17;;;2.63;;
15043;SDS011;7619;48.562;8.910;2024-02-21T08:02:13;4.37;;;2.13;;
15043;SDS011;7619;48.562;8.910;2024-02-21T08:04:41;6.20;;;2.63;;
15043;SDS011;7619;48.562;8.910;2024-02-21T08:07:09;4.27;;;2.63;;
15043;SDS011;7619;48.562;8.910;2024-02-21T08:09:39;8.63;;;3.00;;
15043;SDS011;7619;48.562;8.910;2024-02-21T08:12:08;8.87;;;2.63;;
15043;SDS011;7619;48.562;8.910;2024-02-21T08:14:36;4.23;;;2.60;;
15043;SDS011;7619;48.562;8.910;2024-02-21T08:17:04;4.37;;;2.60;;
15043;SDS011;7619;48.562;8.910;2024-02-21T08:19:32;3.43;;;2.37;;
15043;SDS011;7619;48.562;8.910;2024-02-21T08:22:00;10.53;;;2.87;;
15043;SDS011;7619;48.562;8.910;2024-02-21T08:24:28;6.83;;;2.33;;
15043;SDS011;7619;48.562;8.910;2024-02-21T08:26:56;4.90;;;2.63;;
15043;SDS011;7619;48.562;8.910;2024-02-21T08:29:24;6.63;;;2.50;;
15043;SDS011;7619;48.562;8.910;2024-02-21T08:31:52;12.00;;;2.93;;
15043;SDS011;7619;48.562;8.910;2024-02-21T08:34:20;6.13;;;2.40;;
15043;SDS011;7619;48.562;8.910;2024-02-21T08:36:48;10.00;;;2.87;;
15043;SDS011;7619;48.562;8.910;2024-02-21T08:39:16;4.67;;;2.87;;
15043;SDS011;7619;48.562;8.910;2024-02-21T08:41:44;5.37;;;2.77;;
15043;SDS011;7619;48.562;8.910;2024-02-21T08:44:12;6.17;;;2.80;;
15043;SDS011;7619;48.562;8.910;2024-02-21T08:46:40;8.90;;;3.43;;
15043;SDS011;7619;48.562;8.910;2024-02-21T08:49:10;10.57;;;3.33;;
15043;SDS011;7619;48.562;8.910;2024-02-21T08:51:38;6.83;;;2.57;;
15043;SDS011;7619;48.562;8.910;2024-02-21T08:54:06;8.07;;;2.63;;
15043;SDS011;7619;48.562;8.910;2024-02-21T08:56:34;5.10;;;2.37;;
15043;SDS011;7619;48.562;8.910;2024-02-21T08:59:03;5.90;;;2.70;;
15043;SDS011;7619;48.562;8.910;2024-02-21T09:01:31;5.43;;;2.10;;
15043;SDS011;7619;48.562;8.910;2024-02-21T09:04:00;7.53;;;2.20;;
15043;SDS011;7619;48.562;8.910;2024-02-21T09:06:29;6.27;;;2.20;;
15043;SDS011;7619;48.562;8.910;2024-02-21T09:08:59;7.33;;;2.37;;
15043;SDS011;7619;48.562;8.910;2024-02-21T09:11:27;6.80;;;2.60;;
15043;SDS011;7619;48.562;8.910;2024-02-21T09:13:55;8.27;;;2.50;;
15043;SDS011;7619;48.562;8.910;2024-02-21T09:16:23;6.40;;;2.47;;
15043;SDS011;7619;48.562;8.910;2024-02-21T09:18:51;8.87;;;2.53;;
15043;SDS011;7619;48.562;8.910;2024-02-21T09:21:19;3.40;;;2.30;;
15043;SDS011;7619;48.562;8.910;2024-02-21T09:23:47;5.17;;;2.07;;
15043;SDS011;7619;48.562;8.910;2024-02-21T09:26:15;5.30;;;2.20;;
15043;SDS011;7619;48.562;8.910;2024-02-21T09:28:43;5.40;;;2.60;;
15043;SDS011;7619;48.562;8.910;2024-02-21T09:31:12;4.63;;;2.07;;
15043;SDS011;7619;48.562;8.910;2024-02-21T09:33:40;3.00;;;1.70;;
15043;SDS011;7619;48.562;8.910;2024-02-21T09:36:08;7.33;;;2.10;;
15043;SDS011;7619;48.562;8.910;2024-02-21T09:38:39;6.30;;;1.93;;
15043;SDS011;7619;48.562;8.910;2024-02-21T09:41:14;2.00;;;1.73;;
15043;SDS011;7619;48.562;8.910;2024-02-21T09:43:38;5.63;;;2.27;;
15043;SDS011;7619;48.562;8.910;2024-02-21T09:46:08;4.53;;;2.10;;
15043;SDS011;7619;48.562;8.910;2024-02-21T09:48:42;5.37;;;2.13;;
15043;SDS011;7619;48.562;8.910;2024-02-21T09:51:11;5.37;;;2.73;;
15043;SDS011;7619;48.562;8.910;2024-02-21T09:53:39;6.60;;;2.10;;
15043;SDS011;7619;48.562;8.910;2024-02-21T09:56:08;5.90;;;2.10;;
15043;SDS011;7619;48.562;8.910;2024-02-21T09:58:36;4.93;;;1.90;;
15043;SDS011;7619;48.562;8.910;2024-02-21T10:01:05;5.10;;;1.77;;
15043;SDS011;7619;48.562;8.910;2024-02-21T10:03:34;5.13;;;1.63;;
15043;SDS011;7619;48.562;8.910;2024-02-21T10:06:02;2.93;;;2.00;;
15043;SDS011;7619;48.562;8.910;2024-02-21T10:08:30;3.73;;;1.90;;
15043;SDS011;7619;48.562;8.910;2024-02-21T10:10:58;3.27;;;1.80;;
15043;SDS011;7619;48.562;8.910;2024-02-21T10:13:27;3.67;;;1.70;;
15043;SDS011;7619;48.562;8.910;2024-02-21T10:16:03;3.53;;;1.70;;
15043;SDS011;7619;48.562;8.910;2024-02-21T10:18:31;2.97;;;1.50;;
15043;SDS011;7619;48.562;8.910;2024-02-21T10:21:03;3.97;;;1.60;;
15043;SDS011;7619;48.562;8.910;2024-02-21T10:23:41;3.70;;;1.50;;
15043;SDS011;7619;48.562;8.910;2024-02-21T10:26:09;4.77;;;1.73;;
15043;SDS011;7619;48.562;8.910;2024-02-21T10:28:38;4.30;;;1.40;;
15043;SDS011;7619;48.562;8.910;2024-02-21T10:31:08;2.63;;;1.17;;
15043;SDS011;7619;48.562;8.910;2024-02-21T10:33:37;3.40;;;1.20;;
15043;SDS011;7619;48.562;8.910;2024-02-21T10:36:09;1.40;;;1.20;;
15043;SDS011;7619;48.562;8.910;2024-02-21T10:38:37;2.83;;;1.50;;
15043;SDS011;7619;48.562;8.910;2024-02-21T10:41:05;1.60;;;1.23;;
15043;SDS011;7619;48.562;8.910;2024-02-21T10:43:37;4.00;;;1.93;;
15043;SDS011;7619;48.562;8.910;2024-02-21T10:46:04;4.83;;;1.40;;
15043;SDS011;7619;48.562;8.910;2024-02-21T10:48:36;4.27;;;1.53;;
15043;SDS011;7619;48.562;8.910;2024-02-21T10:51:05;3.87;;;1.50;;
15043;SDS011;7619;48.562;8.910;2024-02-21T10:53:35;6.53;;;2.07;;
15043;SDS011;7619;48.562;8.910;2024-02-21T10:56:06;5.17;;;1.50;;
15043;SDS011;7619;48.562;8.910;2024-02-21T10:58:35;5.67;;;2.10;;
15043;SDS011;7619;48.562;8.910;2024-02-21T11:01:03;2.17;;;1.40;;
15043;SDS011;7619;48.562;8.910;2024-02-21T11:03:32;4.83;;;2.10;;
15043;SDS011;7619;48.562;8.910;2024-02-21T11:06:02;5.67;;;1.60;;
15043;SDS011;7619;48.562;8.910;2024-02-21T11:08:31;3.43;;;1.80;;
15043;SDS011;7619;48.562;8.910;2024-02-21T11:10:59;3.87;;;2.20;;
15043;SDS011;7619;48.562;8.910;2024-02-21T11:13:31;4.27;;;1.40;;
15043;SDS011;7619;48.562;8.910;2024-02-21T11:16:12;7.30;;;1.53;;
15043;SDS011;7619;48.562;8.910;2024-02-21T11:18:39;3.70;;;1.90;;
15043;SDS011;7619;48.562;8.910;2024-02-21T11:21:07;3.07;;;1.63;;
15043;SDS011;7619;48.562;8.910;2024-02-21T11:23:36;2.77;;;1.43;;
15043;SDS011;7619;48.562;8.910;2024-02-21T11:26:04;4.30;;;1.37;;
15043;SDS011;7619;48.562;8.910;2024-02-21T11:28:32;2.93;;;1.30;;
15043;SDS011;7619;48.562;8.910;2024-02-21T11:31:10;1.20;;;1.10;;
15043;SDS011;7619;48.562;8.910;2024-02-21T11:33:40;3.40;;;1.60;;
15043;SDS011;7619;48.562;8.910;2024-02-21T11:36:09;5.43;;;1.63;;
15043;SDS011;7619;48.562;8.910;2024-02-21T11:38:37;6.17;;;1.67;;
15043;SDS011;7619;48.562;8.910;2024-02-21T11:41:07;2.93;;;1.63;;
15043;SDS011;7619;48.562;8.910;2024-02-21T11:43:36;6.03;;;1.80;;
15043;SDS011;7619;48.562;8.910;2024-02-21T11:46:04;5.93;;;1.80;;
15043;SDS011;7619;48.562;8.910;2024-02-21T11:48:33;4.30;;;1.70;;
15043;SDS011;7619;48.562;8.910;2024-02-21T11:51:01;1.87;;;1.13;;
15043;SDS011;7619;48.562;8.910;2024-02-21T11:53:30;6.30;;;2.00;;
15043;SDS011;7619;48.562;8.910;2024-02-21T11:56:00;12.70;;;2.70;;
15043;SDS011;7619;48.562;8.910;2024-02-21T11:58:28;1.90;;;1.37;;
15043;SDS011;7619;48.562;8.910;2024-02-21T12:00:57;2.00;;;1.17;;
15043;SDS011;7619;48.562;8.910;2024-02-21T12:03:26;4.87;;;1.40;;
15043;SDS011;7619;48.562;8.910;2024-02-21T12:05:54;2.67;;;1.33;;
15043;SDS011;7619;48.562;8.910;2024-02-21T12:08:23;1.97;;;1.27;;
15043;SDS011;7619;48.562;8.910;2024-02-21T12:10:52;2.47;;;1.23;;
15043;SDS011;7619;48.562;8.910;2024-02-21T12:13:19;2.93;;;1.43;;
15043;SDS011;7619;48.562;8.910;2024-02-21T12:15:49;4.83;;;1.27;;
15043;SDS011;7619;48.562;8.910;2024-02-21T12:18:17;2.67;;;1.67;;
15043;SDS011;7619;48.562;8.910;2024-02-21T12:20:48;3.20;;;1.40;;
15043;SDS011;7619;48.562;8.910;2024-02-21T12:23:18;2.57;;;1.40;;
15043;SDS011;7619;48.562;8.910;2024-02-21T12:25:46;5.33;;;1.60;;
15043;SDS011;7619;48.562;8.910;2024-02-21T12:28:14;1.80;;;1.10;;
15043;SDS011;7619;48.562;8.910;2024-02-21T12:30:44;2.40;;;1.40;;
15043;SDS011;7619;48.562;8.910;2024-02-21T12:33:12;2.50;;;1.40;;
15043;SDS011;7619;48.562;8.910;2024-02-21T12:35:41;5.17;;;1.60;;
15043;SDS011;7619;48.562;8.910;2024-02-21T12:38:09;4.20;;;1.20;;
15043;SDS011;7619;48.562;8.910;2024-02-21T12:40:38;3.30;;;1.23;;
15043;SDS011;7619;48.562;8.910;2024-02-21T12:43:06;1.30;;;1.10;;
15043;SDS011;7619;48.562;8.910;2024-02-21T12:45:34;5.33;;;1.30;;
15043;SDS011;7619;48.562;8.910;2024-02-21T12:48:03;2.47;;;1.57;;
15043;SDS011;7619;48.562;8.910;2024-02-21T12:50:31;4.80;;;1.80;;
15043;SDS011;7619;48.562;8.910;2024-02-21T12:53:00;1.53;;;1.20;;
15043;SDS011;7619;48.562;8.910;2024-02-21T12:55:28;3.83;;;1.20;;
15043;SDS011;7619;48.562;8.910;2024-02-21T12:57:56;2.83;;;1.47;;
15043;SDS011;7619;48.562;8.910;2024-02-21T13:00:24;3.10;;;1.27;;
15043;SDS011;7619;48.562;8.910;2024-02-21T13:02:54;1.97;;;1.10;;
15043;SDS011;7619;48.562;8.910;2024-02-21T13:05:22;4.83;;;1.60;;
15043;SDS011;7619;48.562;8.910;2024-02-21T13:07:50;1.37;;;1.00;;
15043;SDS011;7619;48.562;8.910;2024-02-21T13:10:18;1.83;;;1.10;;
15043;SDS011;7619;48.562;8.910;2024-02-21T13:12:46;2.17;;;1.17;;
15043;SDS011;7619;48.562;8.910;2024-02-21T13:15:14;1.80;;;1.27;;
15043;SDS011;7619;48.562;8.910;2024-02-21T13:17:44;3.60;;;1.33;;
15043;SDS011;7619;48.562;8.910;2024-02-21T13:20:12;2.60;;;1.30;;
15043;SDS011;7619;48.562;8.910;2024-02-21T13:22:41;2.47;;;1.30;;
15043;SDS011;7619;48.562;8.910;2024-02-21T13:25:09;1.97;;;1.10;;
15043;SDS011;7619;48.562;8.910;2024-02-21T13:27:37;1.73;;;1.57;;
15043;SDS011;7619;48.562;8.910;2024-02-21T13:30:06;2.20;;;1.50;;
15043;SDS011;7619;48.562;8.910;2024-02-21T13:32:36;4.50;;;3.67;;
15043;SDS011;7619;48.562;8.910;2024-02-21T13:35:05;6.50;;;1.67;;
15043;SDS011;7619;48.562;8.910;2024-02-21T13:37:33;4.17;;;1.60;;
15043;SDS011;7619;48.562;8.910;2024-02-21T13:40:01;1.90;;;1.70;;
15043;SDS011;7619;48.562;8.910;2024-02-21T13:42:30;2.97;;;1.50;;
15043;SDS011;7619;48.562;8.910;2024-02-21T13:44:58;3.90;;;1.30;;
15043;SDS011;7619;48.562;8.910;2024-02-21T13:47:26;3.47;;;1.37;;
15043;SDS011;7619;48.562;8.910;2024-02-21T13:49:54;3.80;;;1.50;;
15043;SDS011;7619;48.562;8.910;2024-02-21T13:52:23;1.60;;;1.10;;
15043;SDS011;7619;48.562;8.910;2024-02-21T13:54:53;1.57;;;1.20;;
15043;SDS011;7619;48.562;8.910;2024-02-21T13:57:21;2.60;;;1.47;;
15043;SDS011;7619;48.562;8.910;2024-02-21T13:59:49;5.27;;;1.43;;
15043;SDS011;7619;48.562;8.910;2024-02-21T14:02:17;4.03;;;1.50;;
15043;SDS011;7619;48.562;8.910;2024-02-21T14:04:46;1.53;;;1.17;;
15043;SDS011;7619;48.562;8.910;2024-02-21T14:07:14;1.50;;;1.40;;
15043;SDS011;7619;48.562;8.910;2024-02-21T14:09:44;2.00;;;1.73;;
15043;SDS011;7619;48.562;8.910;2024-02-21T14:12:12;3.47;;;2.20;;
15043;SDS011;7619;48.562;8.910;2024-02-21T14:14:40;3.03;;;2.13;;
15043;SDS011;7619;48.562;8.910;2024-02-21T14:17:08;5.10;;;1.67;;
15043;SDS011;7619;48.562;8.910;2024-02-21T14:19:36;2.50;;;1.50;;
15043;SDS011;7619;48.562;8.910;2024-02-21T14:22:05;3.40;;;1.60;;
15043;SDS011;7619;48.562;8.910;2024-02-21T14:24:33;1.90;;;1.47;;
15043;SDS011;7619;48.562;8.910;2024-02-21T14:27:01;2.00;;;1.47;;
15043;SDS011;7619;48.562;8.910;2024-02-21T14:29:30;6.03;;;1.90;;
15043;SDS011;7619;48.562;8.910;2024-02-21T14:31:58;5.47;;;3.00;;
15043;SDS011;7619;48.562;8.910;2024-02-21T14:34:26;5.27;;;2.07;;
15043;SDS011;7619;48.562;8.910;2024-02-21T14:36:54;6.93;;;1.60;;
15043;SDS011;7619;48.562;8.910;2024-02-21T14:39:22;2.00;;;1.20;;
15043;SDS011;7619;48.562;8.910;2024-02-21T14:41:50;1.83;;;1.30;;
15043;SDS011;7619;48.562;8.910;2024-02-21T14:44:18;1.23;;;1.10;;
15043;SDS011;7619;48.562;8.910;2024-02-21T14:46:47;3.67;;;1.23;;
15043;SDS011;7619;48.562;8.910;2024-02-21T14:49:15;2.67;;;1.33;;
15043;SDS011;7619;48.562;8.910;2024-02-21T14:51:43;2.27;;;1.30;;
15043;SDS011;7619;48.562;8.910;2024-02-21T14:54:11;3.97;;;1.40;;
15043;SDS011;7619;48.562;8.910;2024-02-21T14:56:39;6.87;;;1.97;;
15043;SDS011;7619;48.562;8.910;2024-02-21T14:59:07;2.87;;;1.33;;
15043;SDS011;7619;48.562;8.910;2024-02-21T15:01:36;1.17;;;1.07;;
15043;SDS011;7619;48.562;8.910;2024-02-21T15:04:05;3.67;;;1.50;;
15043;SDS011;7619;48.562;8.910;2024-02-21T15:06:33;2.10;;;1.13;;